createdAt,value
2019-02-10T00:00:40.728Z,99965.98
2019-02-10T00:03:09.150Z,99951.94
2019-02-10T00:05:37.599Z,99959.99
2019-02-10T00:08:06.098Z,99956.61
2019-02-10T00:10:34.493Z,99948.53
2019-02-10T00:13:28.239Z,99940.47
2019-02-10T00:15:58.585Z,99930.27
2019-02-10T00:18:27.064Z,99920.10
2019-02-10T00:20:55.472Z,99920.94
2019-02-10T00:23:23.865Z,99912.45
2019-02-10T00:25:52.292Z,99908.61
2019-02-10T00:28:20.776Z,99906.94
2019-02-10T00:30:49.204Z,99895.50
2019-02-10T00:33:17.565Z,99895.08
2019-02-10T00:35:46.635Z,99885.75
2019-02-10T00:38:15.037Z,99878.94
2019-02-10T00:40:43.430Z,99873.81
2019-02-10T00:43:11.854Z,99872.11
2019-02-10T00:45:40.274Z,99867.44
2019-02-10T00:48:08.675Z,99864.50
2019-02-10T00:50:37.091Z,99858.55
2019-02-10T00:53:05.511Z,99847.09
2019-02-10T00:55:33.902Z,99845.39
2019-02-10T00:58:02.314Z,99830.95
2019-02-10T01:00:30.695Z,99821.61
2019-02-10T01:02:59.200Z,99818.64
2019-02-10T01:05:27.674Z,99808.45
2019-02-10T01:07:56.137Z,99800.84
2019-02-10T01:10:25.762Z,99797.88
2019-02-10T01:12:54.420Z,99789.38
2019-02-10T01:15:22.799Z,99789.38
2019-02-10T01:17:51.309Z,99782.20
2019-02-10T01:20:19.777Z,99783.48
2019-02-10T01:22:48.276Z,99779.22
2019-02-10T01:25:16.667Z,99765.66
2019-02-10T01:27:45.144Z,99752.08
2019-02-10T01:30:15.301Z,99740.69
2019-02-10T01:32:43.843Z,99741.13
2019-02-10T01:35:12.381Z,99744.95
2019-02-10T01:37:40.785Z,99732.21
2019-02-10T01:40:10.542Z,99724.57
2019-02-10T01:42:39.078Z,99719.48
2019-02-10T01:45:10.701Z,99710.98
2019-02-10T01:47:39.106Z,99706.30
2019-02-10T01:50:09.960Z,99701.20
2019-02-10T01:52:38.423Z,99680.41
2019-02-10T01:55:09.828Z,99667.25
2019-02-10T01:57:38.221Z,99658.76
2019-02-10T02:00:10.023Z,99635.84
2019-02-10T02:02:38.435Z,99636.27
2019-02-10T02:05:08.138Z,99628.64
2019-02-10T02:07:36.549Z,99623.12
2019-02-10T02:10:06.476Z,99614.20
2019-02-10T02:12:34.906Z,99608.26
2019-02-10T02:15:03.421Z,99606.14
2019-02-10T02:17:31.811Z,99593.83
2019-02-10T02:20:00.249Z,99577.27
2019-02-10T02:22:28.714Z,99571.74
2019-02-10T02:24:57.201Z,99570.89
2019-02-10T02:27:25.603Z,99567.49
2019-02-10T02:29:54.049Z,99559.00
2019-02-10T02:32:22.464Z,99555.61
2019-02-10T02:34:50.858Z,99554.76
2019-02-10T02:37:19.280Z,99548.81
2019-02-10T02:39:48.248Z,99544.14
2019-02-10T02:42:16.655Z,99528.01
2019-02-10T02:44:45.065Z,99526.27
2019-02-10T02:47:13.478Z,99521.59
2019-02-10T02:49:41.954Z,99514.78
2019-02-10T02:52:10.372Z,99509.26
2019-02-10T02:54:38.769Z,99496.49
2019-02-10T02:57:07.174Z,99485.03
2019-02-10T02:59:35.570Z,99465.93
2019-02-10T03:02:03.983Z,99453.62
2019-02-10T03:04:32.387Z,99446.41
2019-02-10T03:07:00.805Z,99435.37
2019-02-10T03:09:29.226Z,99429.39
2019-02-10T03:11:57.689Z,99423.02
2019-02-10T03:14:26.097Z,99419.63
2019-02-10T03:16:54.489Z,99410.29
2019-02-10T03:19:22.888Z,99407.31
2019-02-10T03:21:51.380Z,99395.86
2019-02-10T03:24:19.780Z,99392.89
2019-02-10T03:26:48.188Z,99386.53
2019-02-10T03:29:16.567Z,99366.98
2019-02-10T03:31:44.987Z,99367.83
2019-02-10T03:34:13.374Z,99362.31
2019-02-10T03:36:41.781Z,99355.11
2019-02-10T03:39:10.200Z,99343.66
2019-02-10T03:41:38.664Z,99339.84
2019-02-10T03:44:07.090Z,99326.27
2019-02-10T03:46:35.479Z,99327.11
2019-02-10T03:49:03.963Z,99318.20
2019-02-10T03:51:32.360Z,99307.60
2019-02-10T03:54:00.774Z,99297.39
2019-02-10T03:56:29.162Z,99285.52
2019-02-10T03:58:57.642Z,99285.52
2019-02-10T04:01:26.038Z,99278.31
2019-02-10T04:03:54.441Z,99269.83
2019-02-10T04:06:22.846Z,99259.23
2019-02-10T04:08:51.269Z,99239.31
2019-02-10T04:11:19.686Z,99229.56
2019-02-10T04:13:48.094Z,99215.57
2019-02-10T04:16:16.505Z,99204.12
2019-02-10T04:18:44.900Z,99188.84
2019-02-10T04:21:13.305Z,99187.99
2019-02-10T04:23:41.740Z,99178.67
2019-02-10T04:26:10.134Z,99174.85
2019-02-10T04:28:38.559Z,99159.17
2019-02-10T04:31:06.963Z,99155.78
2019-02-10T04:33:35.378Z,99146.88
2019-02-10T04:36:03.782Z,99141.38
2019-02-10T04:38:32.186Z,99135.02
2019-02-10T04:41:00.594Z,99128.66
2019-02-10T04:43:29.073Z,99118.91
2019-02-10T04:45:57.495Z,99104.08
2019-02-10T04:48:25.902Z,99098.58
2019-02-10T04:50:54.325Z,99089.67
2019-02-10T04:53:22.720Z,99075.27
2019-02-10T04:56:11.314Z,99060.02
2019-02-10T04:58:39.707Z,99046.45
2019-02-10T05:01:08.122Z,99040.52
2019-02-10T05:03:36.523Z,99023.14
2019-02-10T05:06:04.997Z,99012.55
2019-02-10T05:08:33.415Z,99006.19
2019-02-10T05:11:01.809Z,98995.59
2019-02-10T05:13:30.389Z,98992.63
2019-02-10T05:15:58.789Z,98984.58
2019-02-10T05:18:27.191Z,98977.80
2019-02-10T05:20:55.587Z,98963.81
2019-02-10T05:23:23.980Z,98949.83
2019-02-10T05:25:52.407Z,98942.62
2019-02-10T05:28:20.796Z,98929.48
2019-02-10T05:30:49.225Z,98916.76
2019-02-10T05:33:17.640Z,98908.28
2019-02-10T05:35:46.051Z,98894.30
2019-02-10T05:38:14.463Z,98903.18
2019-02-10T05:40:42.874Z,98888.77
2019-02-10T05:43:11.270Z,98879.46
2019-02-10T05:45:39.684Z,98876.50
2019-02-10T05:48:08.079Z,98871.83
2019-02-10T05:50:36.468Z,98854.86
2019-02-10T05:53:04.946Z,98856.97
2019-02-10T05:55:33.342Z,98844.67
2019-02-10T05:58:01.847Z,98835.33
2019-02-10T06:00:30.496Z,98834.05
2019-02-10T06:02:58.902Z,98829.80
2019-02-10T06:05:27.371Z,98831.48
2019-02-10T06:07:55.761Z,98817.50
2019-02-10T06:10:24.249Z,98813.25
2019-02-10T06:12:52.642Z,98807.74
2019-02-10T06:15:21.116Z,98803.09
2019-02-10T06:17:49.463Z,98797.58
2019-02-10T06:20:17.852Z,98788.25
2019-02-10T06:22:46.317Z,98783.98
2019-02-10T06:25:14.739Z,98779.32
2019-02-10T06:27:43.160Z,98766.60
2019-02-10T06:30:11.691Z,98761.91
2019-02-10T06:32:40.112Z,98755.55
2019-02-10T06:35:09.439Z,98746.21
2019-02-10T06:37:37.930Z,98741.54
2019-02-10T06:40:08.065Z,98740.25
2019-02-10T06:42:36.481Z,98736.44
2019-02-10T06:45:07.743Z,98724.13
2019-02-10T06:47:36.230Z,98724.55
2019-02-10T06:50:05.387Z,98712.25
2019-02-10T06:52:33.809Z,98702.06
2019-02-10T06:55:02.210Z,98696.98
2019-02-10T06:57:30.601Z,98687.63
2019-02-10T07:00:03.441Z,98679.12
2019-02-10T07:02:38.998Z,98667.66
2019-02-10T07:05:10.435Z,98660.84
2019-02-10T07:07:38.831Z,98643.45
2019-02-10T07:10:08.016Z,98635.81
2019-02-10T07:12:49.749Z,98621.36
2019-02-10T07:15:37.546Z,98625.16
2019-02-10T07:18:42.124Z,98614.56
2019-02-10T07:21:10.551Z,98616.68
2019-02-10T07:23:58.735Z,98614.52
2019-02-10T07:26:33.074Z,98600.01
2019-02-10T07:29:01.482Z,98596.63
2019-02-10T07:31:29.962Z,98599.56
2019-02-10T07:34:07.060Z,98591.91
2019-02-10T07:36:38.511Z,98591.48
2019-02-10T07:39:18.828Z,98580.81
2019-02-10T07:42:17.336Z,98585.78
2019-02-10T07:44:57.370Z,98578.55
2019-02-10T07:47:31.584Z,98570.02
2019-02-10T07:50:11.840Z,98562.38
2019-02-10T07:52:52.400Z,98558.48
2019-02-10T07:55:42.071Z,98559.73
2019-02-10T07:58:33.203Z,98552.05
2019-02-10T08:01:04.689Z,98556.73
2019-02-10T08:03:42.148Z,98555.88
2019-02-10T08:06:22.395Z,98554.58
2019-02-10T08:08:53.853Z,98557.10
2019-02-10T08:11:36.654Z,98557.94
2019-02-10T08:14:20.161Z,98551.13
2019-02-10T08:17:00.628Z,98547.25
2019-02-10T08:19:38.198Z,98548.46
2019-02-10T08:22:29.329Z,98542.91
2019-02-10T08:25:00.783Z,98539.52
2019-02-10T08:27:41.141Z,98542.08
2019-02-10T08:30:30.635Z,98536.88
2019-02-10T08:33:02.108Z,98524.50
2019-02-10T08:35:36.081Z,98510.90
2019-02-10T08:38:10.116Z,98501.59
2019-02-10T08:40:47.443Z,98501.92
2019-02-10T08:43:30.772Z,98494.69
2019-02-10T08:46:17.172Z,98489.17
2019-02-10T08:48:57.521Z,98485.32
2019-02-10T08:51:38.005Z,98493.86
2019-02-10T08:54:06.845Z,98490.44
2019-02-10T08:56:36.633Z,98481.93
2019-02-10T08:59:05.142Z,98475.56
2019-02-10T09:01:33.553Z,98468.30
2019-02-10T09:04:01.966Z,98450.45
2019-02-10T09:06:30.362Z,98442.73
2019-02-10T09:09:02.674Z,98446.17
2019-02-10T09:11:28.881Z,98430.83
2019-02-10T09:13:57.291Z,98441.38
2019-02-10T09:16:25.689Z,98438.39
2019-02-10T09:18:54.108Z,98441.75
2019-02-10T09:21:22.533Z,98444.27
2019-02-10T09:23:50.949Z,98442.08
2019-02-10T09:26:19.378Z,98447.11
2019-02-10T09:28:47.802Z,98442.42
2019-02-10T09:31:16.199Z,98444.97
2019-02-10T09:33:44.624Z,98447.44
2019-02-10T09:36:13.109Z,98438.05
2019-02-10T09:38:41.518Z,98441.91
2019-02-10T09:41:09.933Z,98437.70
2019-02-10T09:43:38.363Z,98430.45
2019-02-10T09:46:06.817Z,98431.27
2019-02-10T09:48:35.233Z,98430.87
2019-02-10T09:51:03.644Z,98421.10
2019-02-10T09:53:32.059Z,98411.74
2019-02-10T09:56:00.461Z,98412.18
2019-02-10T09:58:28.850Z,98414.73
2019-02-10T10:00:57.345Z,98407.52
2019-02-10T10:03:25.747Z,98409.22
2019-02-10T10:05:54.161Z,98419.42
2019-02-10T10:08:22.556Z,98411.80
2019-02-10T10:10:50.978Z,98412.64
2019-02-10T10:13:19.389Z,98404.97
2019-02-10T10:15:47.781Z,98407.48
2019-02-10T10:18:16.297Z,98397.72
2019-02-10T10:20:44.801Z,98404.53
2019-02-10T10:23:13.229Z,98408.35
2019-02-10T10:25:41.628Z,98395.58
2019-02-10T10:28:10.096Z,98394.73
2019-02-10T10:30:38.522Z,98387.52
2019-02-10T10:33:06.915Z,98388.36
2019-02-10T10:35:35.324Z,98380.78
2019-02-10T10:38:03.732Z,98376.08
2019-02-10T10:40:32.155Z,98392.19
2019-02-10T10:43:00.555Z,98373.06
2019-02-10T10:45:29.058Z,98376.48
2019-02-10T10:47:57.471Z,98389.23
2019-02-10T10:50:25.886Z,98390.08
2019-02-10T10:52:54.284Z,98389.64
2019-02-10T10:55:22.682Z,98392.56
2019-02-10T10:57:51.163Z,98388.73
2019-02-10T11:00:19.663Z,98386.13
2019-02-10T11:02:48.078Z,98388.55
2019-02-10T11:05:16.561Z,98380.91
2019-02-10T11:07:44.966Z,98386.28
2019-02-10T11:10:13.837Z,98392.22
2019-02-10T11:12:42.238Z,98377.50
2019-02-10T11:15:15.552Z,98381.77
2019-02-10T11:17:43.970Z,98372.86
2019-02-10T11:20:12.916Z,98381.39
2019-02-10T11:22:41.373Z,98376.36
2019-02-10T11:25:11.809Z,98367.80
2019-02-10T11:27:40.266Z,98363.09
2019-02-10T11:30:11.801Z,98361.35
2019-02-10T11:32:40.279Z,98359.70
2019-02-10T11:35:09.352Z,98366.15
2019-02-10T11:37:37.753Z,98374.67
2019-02-10T11:40:08.824Z,98359.73
2019-02-10T11:42:37.294Z,98357.63
2019-02-10T11:45:13.394Z,98365.75
2019-02-10T11:47:41.800Z,98364.47
2019-02-10T11:50:12.461Z,98366.19
2019-02-10T11:52:40.870Z,98365.34
2019-02-10T11:55:10.334Z,98362.36
2019-02-10T11:57:38.815Z,98360.24
2019-02-10T12:00:17.567Z,98361.98
2019-02-10T12:02:45.959Z,98357.72
2019-02-10T12:05:14.501Z,98362.83
2019-02-10T12:07:42.921Z,98354.37
2019-02-10T12:10:14.683Z,98365.88
2019-02-10T12:12:43.087Z,98360.81
2019-02-10T12:15:13.336Z,98366.31
2019-02-10T12:17:41.760Z,98376.14
2019-02-10T12:20:12.006Z,98371.98
2019-02-10T12:22:40.409Z,98368.22
2019-02-10T12:25:10.345Z,98375.00
2019-02-10T12:27:38.760Z,98368.28
2019-02-10T12:30:14.796Z,98369.68
2019-02-10T12:32:43.253Z,98364.61
2019-02-10T12:35:14.906Z,98379.16
2019-02-10T12:37:43.382Z,98366.94
2019-02-10T12:40:12.545Z,98373.38
2019-02-10T12:42:40.958Z,98377.63
2019-02-10T12:45:11.286Z,98371.72
2019-02-10T12:47:39.769Z,98105.03
2019-02-10T12:50:15.104Z,98376.91
2019-02-10T12:52:43.610Z,98385.85
2019-02-10T12:55:12.852Z,98382.52
2019-02-10T12:57:41.354Z,98373.63
2019-02-10T13:00:17.333Z,98383.42
2019-02-10T13:02:45.853Z,98379.22
2019-02-10T13:05:14.443Z,98389.06
2019-02-10T13:07:42.923Z,98400.13
2019-02-10T13:10:13.076Z,98389.55
2019-02-10T13:12:41.485Z,98396.76
2019-02-10T13:15:11.137Z,98406.08
2019-02-10T13:17:39.541Z,98400.93
2019-02-10T13:20:12.964Z,98403.51
2019-02-10T13:22:41.428Z,98403.48
2019-02-10T13:25:11.945Z,98394.05
2019-02-10T13:27:40.433Z,98377.40
2019-02-10T13:30:19.172Z,98378.41
2019-02-10T13:32:47.667Z,98379.19
2019-02-10T13:35:16.128Z,98371.58
2019-02-10T13:37:44.517Z,98380.63
2019-02-10T13:40:20.620Z,98376.89
2019-02-10T13:42:49.016Z,98374.44
2019-02-10T13:45:17.499Z,98378.81
2019-02-10T13:47:45.976Z,98381.42
2019-02-10T13:50:18.953Z,98385.68
2019-02-10T13:52:47.483Z,98383.59
2019-02-10T13:55:16.938Z,98374.30
2019-02-10T13:57:45.466Z,98384.06
2019-02-10T14:00:21.150Z,98383.68
2019-02-10T14:02:49.633Z,98386.66
2019-02-10T14:05:18.104Z,98376.01
2019-02-10T14:07:46.578Z,98391.67
2019-02-10T14:10:16.126Z,98382.72
2019-02-10T14:12:44.798Z,98384.06
2019-02-10T14:15:15.232Z,98387.47
2019-02-10T14:17:43.691Z,98393.41
2019-02-10T14:20:17.054Z,98391.27
2019-02-10T14:22:45.471Z,98391.70
2019-02-10T14:25:14.006Z,98398.54
2019-02-10T14:27:42.570Z,98393.47
2019-02-10T14:30:13.856Z,98393.50
2019-02-10T14:32:42.243Z,98393.96
2019-02-10T14:35:10.834Z,98392.77
2019-02-10T14:37:39.262Z,98390.66
2019-02-10T14:40:08.222Z,98389.03
2019-02-10T14:42:36.651Z,98389.98
2019-02-10T14:45:08.604Z,98394.75
2019-02-10T14:47:36.996Z,98403.34
2019-02-10T14:50:14.240Z,98398.30
2019-02-10T14:52:42.708Z,98409.42
2019-02-10T14:55:11.259Z,98397.17
2019-02-10T14:57:39.666Z,98415.11
2019-02-10T15:00:11.315Z,98401.17
2019-02-10T15:02:39.736Z,98401.20
2019-02-10T15:05:08.598Z,98402.09
2019-02-10T15:07:36.982Z,98400.48
2019-02-10T15:10:11.932Z,98404.37
2019-02-10T15:12:40.439Z,98415.87
2019-02-10T15:15:10.662Z,98419.70
2019-02-10T15:17:39.123Z,98428.25
2019-02-10T15:20:09.627Z,98437.64
2019-02-10T15:22:38.088Z,98440.18
2019-02-10T15:25:09.458Z,98437.70
2019-02-10T15:27:37.828Z,98446.61
2019-02-10T15:30:09.259Z,98455.92
2019-02-10T15:32:37.651Z,98452.99
2019-02-10T15:35:07.059Z,98448.74
2019-02-10T15:37:35.450Z,98460.19
2019-02-10T15:40:05.124Z,98459.36
2019-02-10T15:42:33.533Z,98457.62
2019-02-10T15:45:01.939Z,98463.56
2019-02-10T15:47:30.365Z,98461.45
2019-02-10T15:49:58.779Z,98461.03
2019-02-10T15:52:27.154Z,98458.08
2019-02-10T15:54:55.591Z,98456.80
2019-02-10T15:57:24.248Z,98454.70
2019-02-10T15:59:52.667Z,98458.11
2019-02-10T16:02:21.144Z,98460.25
2019-02-10T16:04:49.584Z,98461.98
2019-02-10T16:07:18.075Z,98468.79
2019-02-10T16:09:46.481Z,98476.89
2019-02-10T16:12:14.952Z,98476.50
2019-02-10T16:14:43.419Z,98483.28
2019-02-10T16:17:11.836Z,98488.41
2019-02-10T16:19:40.269Z,98494.80
2019-02-10T16:22:08.705Z,98496.52
2019-02-10T16:24:37.119Z,98499.11
2019-02-10T16:27:05.526Z,98514.83
2019-02-10T16:29:33.919Z,98510.22
2019-02-10T16:32:02.309Z,98504.34
2019-02-10T16:34:30.731Z,98514.55
2019-02-10T16:36:59.155Z,98518.38
2019-02-10T16:39:27.549Z,98524.36
2019-02-10T16:41:55.961Z,98522.70
2019-02-10T16:44:24.396Z,98528.20
2019-02-10T16:46:52.896Z,98540.94
2019-02-10T16:49:21.296Z,98536.74
2019-02-10T16:51:49.715Z,98533.34
2019-02-10T16:54:18.111Z,98546.91
2019-02-10T16:56:46.509Z,98541.41
2019-02-10T16:59:15.023Z,98552.85
2019-02-10T17:01:43.410Z,98553.71
2019-02-10T17:04:11.847Z,98573.60
2019-02-10T17:06:40.241Z,98574.89
2019-02-10T17:09:08.704Z,98583.38
2019-02-10T17:11:37.307Z,98582.55
2019-02-10T17:14:05.721Z,98590.64
2019-02-10T17:16:34.200Z,98591.06
2019-02-10T17:19:02.604Z,98597.86
2019-02-10T17:21:31.031Z,98611.84
2019-02-10T17:23:59.425Z,98608.46
2019-02-10T17:26:27.851Z,98613.54
2019-02-10T17:28:56.424Z,98610.20
2019-02-10T17:31:24.848Z,98610.20
2019-02-10T17:33:53.277Z,98613.59
2019-02-10T17:36:21.699Z,98622.48
2019-02-10T17:38:50.119Z,98639.02
2019-02-10T17:41:22.914Z,98638.17
2019-02-10T17:43:50.716Z,98642.42
2019-02-10T17:46:19.112Z,98650.89
2019-02-10T17:48:47.540Z,98662.73
2019-02-10T17:51:15.931Z,98658.94
2019-02-10T17:53:44.408Z,98663.60
2019-02-10T17:56:12.837Z,98672.49
2019-02-10T17:58:41.345Z,98668.69
2019-02-10T18:01:09.823Z,98678.84
2019-02-10T18:03:38.256Z,98683.95
2019-02-10T18:06:06.668Z,98685.61
2019-02-10T18:08:35.208Z,98700.02
2019-02-10T18:11:03.687Z,98700.89
2019-02-10T18:13:32.120Z,98710.23
2019-02-10T18:16:02.146Z,98708.10
2019-02-10T18:18:45.431Z,98710.67
2019-02-10T18:21:27.991Z,98722.94
2019-02-10T18:24:03.973Z,98729.73
2019-02-10T18:26:50.131Z,98754.29
2019-02-10T18:29:20.183Z,98736.52
2019-02-10T18:31:50.226Z,98752.62
2019-02-10T18:34:32.166Z,98741.59
2019-02-10T18:37:20.603Z,98750.07
2019-02-10T18:40:08.720Z,98761.92
2019-02-10T18:42:47.589Z,98753.06
2019-02-10T18:45:23.588Z,98772.09
2019-02-10T18:47:53.644Z,98771.27
2019-02-10T18:50:32.892Z,98776.31
2019-02-10T18:53:03.039Z,98791.13
2019-02-10T18:55:41.968Z,98799.17
2019-02-10T18:58:18.314Z,98799.17
2019-02-10T19:00:54.052Z,98797.06
2019-02-10T19:03:26.785Z,98812.72
2019-02-10T19:06:02.579Z,98813.57
2019-02-10T19:08:35.367Z,98821.62
2019-02-10T19:11:08.332Z,98822.47
2019-02-10T19:13:38.361Z,98827.97
2019-02-10T19:16:08.513Z,98828.78
2019-02-10T19:18:41.850Z,98843.59
2019-02-10T19:21:11.918Z,98845.70
2019-02-10T19:23:41.983Z,98858.81
2019-02-10T19:26:27.107Z,98876.58
2019-02-10T19:28:57.179Z,98886.31
2019-02-10T19:31:43.522Z,98912.91
2019-02-10T19:34:19.653Z,98892.19
2019-02-10T19:37:01.853Z,98905.30
2019-02-10T19:39:46.949Z,98924.70
2019-02-10T19:42:20.051Z,98928.48
2019-02-10T19:44:50.139Z,98930.17
2019-02-10T19:47:20.187Z,98945.81
2019-02-10T19:49:59.160Z,98953.38
2019-02-10T19:52:44.569Z,98972.37
2019-02-10T19:55:14.629Z,98972.36
2019-02-10T19:58:00.883Z,98985.41
2019-02-10T20:00:31.017Z,98980.75
2019-02-10T20:03:01.128Z,98981.16
2019-02-10T20:05:49.650Z,98994.66
2019-02-10T20:08:25.584Z,99036.42
2019-02-10T20:10:58.459Z,99032.61
2019-02-10T20:13:28.612Z,99022.47
2019-02-10T20:16:01.596Z,99045.68
2019-02-10T20:18:48.153Z,99039.77
2019-02-10T20:21:29.831Z,99041.44
2019-02-10T20:24:02.550Z,99049.03
2019-02-10T20:26:32.585Z,99055.80
2019-02-10T20:29:05.626Z,99070.58
2019-02-10T20:31:35.708Z,99073.53
2019-02-10T20:34:05.793Z,99090.33
2019-02-10T20:36:47.537Z,99098.73
2019-02-10T20:39:17.579Z,99103.37
2019-02-10T20:42:03.003Z,99113.02
2019-02-10T20:44:49.560Z,99110.05
2019-02-10T20:47:28.620Z,99141.69
2019-02-10T20:50:01.867Z,99124.75
2019-02-10T20:52:34.855Z,99144.12
2019-02-10T20:55:05.064Z,99195.14
2019-02-10T20:57:37.890Z,99157.14
2019-02-10T21:00:16.457Z,99160.00
2019-02-10T21:02:46.533Z,99196.60
2019-02-10T21:05:16.606Z,99217.23
2019-02-10T21:07:55.597Z,99246.58
2019-02-10T21:10:31.443Z,99217.83
2019-02-10T21:13:04.500Z,99245.67
2019-02-10T21:15:34.543Z,99229.16
2019-02-10T21:18:20.952Z,99243.86
2019-02-10T21:20:51.603Z,99270.84
2019-02-10T21:23:21.653Z,99264.50
2019-02-10T21:25:53.016Z,99273.36
2019-02-10T21:28:28.613Z,99285.95
2019-02-10T21:31:13.456Z,99315.40
2019-02-10T21:34:02.593Z,99317.77
2019-02-10T21:36:41.711Z,99315.14
2019-02-10T21:39:27.739Z,99344.58
2019-02-10T21:42:08.792Z,99347.52
2019-02-10T21:44:44.170Z,99355.11
2019-02-10T21:47:17.070Z,99380.27
2019-02-10T21:49:45.490Z,99381.34
2019-02-10T21:52:13.859Z,99387.47
2019-02-10T21:54:42.272Z,99396.31
2019-02-10T21:57:10.659Z,99413.09
2019-02-10T21:59:39.074Z,99428.20
2019-02-10T22:02:07.477Z,99436.22
2019-02-10T22:04:35.890Z,99421.00
2019-02-10T22:07:04.452Z,99441.25
2019-02-10T22:09:32.885Z,99440.52
2019-02-10T22:12:01.281Z,99455.52
2019-02-10T22:14:29.705Z,99468.16
2019-02-10T22:16:58.092Z,99468.13
2019-02-10T22:19:26.480Z,99477.39
2019-02-10T22:21:54.908Z,99493.38
2019-02-10T22:24:23.302Z,99502.59
2019-02-10T22:26:51.704Z,99497.98
2019-02-10T22:29:20.118Z,99513.11
2019-02-10T22:31:48.592Z,99519.46
2019-02-10T22:34:16.989Z,99522.37
2019-02-10T22:36:45.400Z,99521.98
2019-02-10T22:39:13.804Z,99541.45
2019-02-10T22:41:42.194Z,99557.43
2019-02-10T22:44:10.601Z,99555.38
2019-02-10T22:46:39.081Z,99564.26
2019-02-10T22:49:07.515Z,99594.62
2019-02-10T22:51:35.912Z,99589.69
2019-02-10T22:54:04.327Z,99597.75
2019-02-10T22:56:32.749Z,99607.55
2019-02-10T22:59:01.171Z,99613.46
2019-02-10T23:01:30.015Z,99622.34
2019-02-10T23:03:58.437Z,99627.84
2019-02-10T23:06:26.952Z,99635.87
2019-02-10T23:08:55.393Z,99653.09
2019-02-10T23:11:23.776Z,99651.37
2019-02-10T23:13:52.162Z,99665.35
2019-02-10T23:16:20.587Z,99678.44
2019-02-10T23:18:48.996Z,99684.31
2019-02-10T23:21:17.406Z,99677.61
2019-02-10T23:23:45.833Z,99704.23
2019-02-10T23:26:14.237Z,99709.77
2019-02-10T23:28:42.639Z,99714.03
2019-02-10T23:31:11.043Z,99726.75
2019-02-10T23:33:39.436Z,99741.13
2019-02-10T23:36:07.892Z,99731.50
2019-02-10T23:38:36.330Z,99746.77
2019-02-10T23:41:04.724Z,99745.58
2019-02-10T23:43:33.119Z,99762.50
2019-02-10T23:46:01.541Z,99775.59
2019-02-10T23:48:29.965Z,99773.13
2019-02-10T23:50:58.374Z,99781.98
2019-02-10T23:53:26.776Z,99788.30
2019-02-10T23:55:55.257Z,99800.98
2019-02-10T23:58:23.753Z,99804.41
